Urich, MO (64788)

7:31 PM CDT on September 18, 2014 (GMT -0500)
Chilhowee MO US | Change Station
CLOSE
Current Station
Personal Weather Station
Location: Chilhowee, MO
Elevation: 894 ft
Nearby Weather Stations

Elev 894 ft 38.60 °N, 93.85 °W | Updated 1 minute ago

Overcast
Overcast
65.9 °F
Feels Like 65.9 °F
N
0.0
Wind Variable Wind from ENE
Gusts 0.0 mph

Today
High -- | Low -- °F
--% Chance of Precip.
Yesterday
High -- | Low -- °F
Precip. -- in
7:00 AM 7:19 PM
Waning Crescent, 23% visible
Pressure 30.01 in
Visibility 9.0 miles
Clouds Scattered Clouds 2400 ft
Dew Point 62 °F
Humidity 86%
Rainfall 0.00 in
Snow Depth Not available.
UV 0 out of 12
Pollen 4.50 out of 12
Air Quality Not available.
Flu Activity Not available.
METAR KGLY 190015Z AUTO 12004KT 9SM SCT024 20/18 A3001 RMK AO2

More Conditions Fewer Conditions

Pressure 30.01 in
Visibility 9.0 miles
Clouds Scattered Clouds 2400 ft
Dew Point 62 °F
Humidity 86%
Rainfall 0.00 in
Snow Depth Not available.
UV 0 out of 12
Pollen 4.50 out of 12
Air Quality Not available.
Flu Activity Not available.
METAR KGLY 190015Z AUTO 12004KT 9SM SCT024 20/18 A3001 RMK AO2

More Conditions Fewer Conditions

10-Day Weather Forecast

Almanac

Astronomy

Sep. 18, 2014 Rise Set
Actual Time 7:00 AM CDT 7:19 PM CDT
Civil Twilight 6:33 AM CDT 7:45 PM CDT
Nautical Twilight 6:02 AM CDT 8:16 PM CDT
Astronomical Twilight 5:30 AM CDT 8:48 PM CDT
Moon 1:55 AM CDT (9/18) 4:08 PM CDT (9/18)
Length of Visible Light 13h 12m
Length of Day
12h 19m
Tomorrow will be 2m 27s shorter.
Waning Crescent, 23% of the Moon is Illuminated
Today
Waning Crescent
Sep 24
New
Oct 1
First Quarter
Oct 8
Full
Oct 15
Last Quarter

Today's Extremes

State Highs State Lows

Community

WunderPhotos

Upload Photos

1,754,510 photos uploaded!

WunderBlogs® & News

Nearby

Snow Depth

Station Depth Elevation
No new snow has been reported.

Earthquake Activity

City Distance Mag. Time & Date
No recent earthquake activity has been reported nearby.
Minimum magnitude displayed is 2.5.

Coastal Water Temperatures

Place Temperature
No Stations Reporting

Nearby Weather Stations